• Join FlightAware (Why Join?)
  • Login
  • US Flag 
08:26PM EDT


 

Airport Tracker/Info


-or-


 

Live Flight TrackerFlight Track Log ✈ N850FD ✈ 12-Apr-2013 ✈ KOAK - KMEM

Flight Track Log - Related Links

Times and Time Zones

All times are in EDT time to prevent confusion due to time zone crossing. See the N850FD flight status page for this flight to view local times or setup timezone preferences in your user account.

Time Position Orientation Groundspeed Altitude Reporting Facility
EDT Latitude Longitude Course Direction KTS MPH feet Rate Location/Type
10:16AM 37.7350 -122.2640 310° West 202 232 1,700  Level FlightAware
10:16AM 37.7530 -122.2920 309° West 244 281 2,300 3,000 Climbing FlightAware
10:17AM 37.7740 -122.3260 308° West 248 285 4,500 3,960 Climbing FlightAware
10:17AM 37.7970 -122.3590 311° West 263 303 6,300 3,720 Climbing FlightAware
10:17AM 37.8080 -122.3670 330° Northwest 264 304 7,000 4,200 Climbing FlightAware
10:17AM 37.8200 -122.3690 352° North 267 307 7,700 3,600 Climbing FlightAware
10:18AM 37.8450 -122.3600 16° North 277 319 8,800 3,600 Climbing FlightAware
10:18AM 37.8570 -122.3440 46° Northeast 280 322 9,800 3,780 Climbing FlightAware
10:18AM 37.8640 -122.3190 70° East 294 338 10,700 2,280 Climbing FlightAware
10:19AM 37.8590 -122.2450 95° East 354 407 11,900 2,460 Climbing FlightAware
10:20AM 37.8640 -122.1220 87° East 392 451 14,600 3,000 Climbing FlightAware
10:21AM 37.8840 -122.0170 76° East 412 474 16,900 3,060 Climbing FlightAware
10:21AM 37.9030 -121.9210 76° East 428 493 19,000 3,180 Climbing FlightAware
10:22AM 37.9220 -121.8220 76° East 434 499 21,200 2,940 Climbing FlightAware
10:23AM 37.9430 -121.7120 76° East 447 514 23,200 2,580 Climbing FlightAware
10:23AM 37.9630 -121.6090 76° East 460 529 24,900 2,520 Climbing FlightAware
10:24AM 37.9830 -121.5010 77° East 469 540 26,600 2,400 Climbing FlightAware
10:25AM 38.0060 -121.3770 77° East 479 551 28,300 2,100 Climbing FlightAware
10:25AM 38.0270 -121.2650 77° East 490 564 29,600 2,220 Climbing FlightAware
10:26AM 38.0490 -121.1420 77° East 489 563 31,500 2,700 Climbing FlightAware
10:27AM 38.0690 -121.0340 77° East 476 548 33,500 2,580 Climbing FlightAware
10:28AM 38.0880 -120.9050 79° East 474 545 35,200 1,980 Climbing FlightAware
10:28AM 38.1000 -120.8140 80° East 472 543 36,200 1,500 Climbing FlightAware
10:29AM 38.1130 -120.7180 80° East 474 545 37,000 540 Climbing FlightAware
10:30AM 38.1310 -120.5830 80° East 470 541 37,000  Level FlightAware
10:30AM 38.1460 -120.4720 80° East 470 541 37,000  Level FlightAware
10:31AM 38.1620 -120.3490 81° East 471 542 37,000  Level FlightAware
10:32AM 38.1720 -120.2710 81° East 472 543 37,000  Level FlightAware
10:32AM 38.1860 -120.1630 81° East 474 545 37,000  Level FlightAware
10:33AM 38.2030 -120.0360 80° East 475 547 37,000  Level FlightAware
10:34AM 38.2190 -119.9100 81° East 474 545 37,000  Level FlightAware
10:34AM 38.2320 -119.8040 81° East 473 544 37,000  Level FlightAware
10:35AM 38.2460 -119.6910 81° East 475 547 37,000  Level FlightAware
10:36AM 38.2600 -119.5760 81° East 475 547 37,000  Level FlightAware
10:36AM 38.2720 -119.4820 81° East 475 547 37,000  Level FlightAware
10:37AM 38.2910 -119.3300 81° East 475 547 37,000  Level FlightAware
10:38AM 38.3040 -119.2220 81° East 474 545 37,000  Level FlightAware
10:39AM 38.3170 -119.1120 81° East 473 544 37,000  Level FlightAware
10:39AM 38.3310 -119.0000 81° East 473 544 37,000  Level FlightAware
10:40AM 38.3420 -118.9060 81° East 473 544 37,000  Level FlightAware
10:41AM 38.3540 -118.8120 81° East 473 544 37,000  Level FlightAware
10:41AM 38.3690 -118.6950 81° East 473 544 37,000  Level FlightAware
10:42AM 38.3800 -118.6010 81° East 473 544 37,000  Level FlightAware
10:43AM 38.3920 -118.5070 81° East 473 544 37,000  Level FlightAware
10:43AM 38.4040 -118.4140 81° East 473 544 37,000  Level FlightAware
10:44AM 38.4150 -118.3200 81° East 473 544 37,000  Level FlightAware
10:45AM 38.4300 -118.2030 81° East 473 544 37,000  Level FlightAware
10:46AM 38.4410 -118.1090 81° East 473 544 37,000  Level FlightAware
10:46AM 38.4530 -118.0150 81° East 473 544 37,000  Level FlightAware
10:47AM 38.4650 -117.9210 81° East 473 544 37,000  Level FlightAware
10:48AM 38.4760 -117.8270 81° East 473 544 37,000  Level FlightAware
10:48AM 38.4910 -117.7100 81° East 473 544 37,000  Level FlightAware
10:49AM 38.5119 -117.3697 81° East 471 542 37,000  Level Salt Lake Center
10:50AM 38.5136 -117.1967 89° East 488 562 37,000  Level Salt Lake Center
10:51AM 38.4947 -116.9878 97° East 489 563 37,000  Level Salt Lake Center
10:52AM 38.4803 -116.8147 96° East 487 560 37,000  Level Salt Lake Center
10:53AM 38.4661 -116.6411 96° East 487 560 37,000  Level Salt Lake Center
10:54AM 38.4508 -116.4681 96° East 489 563 37,000  Level Salt Lake Center
10:55AM 38.4361 -116.2983 96° East 483 556 37,000  Level Salt Lake Center
10:56AM 38.4206 -116.1261 97° East 487 560 37,000  Level Salt Lake Center
10:57AM 38.4044 -115.9544 97° East 489 563 37,000  Level Salt Lake Center
10:58AM 38.3881 -115.7817 97° East 492 566 37,000  Level Salt Lake Center
11:00AM 38.3719 -115.6081 97° East 493 567 37,000  Level Salt Lake Center
11:01AM 38.3519 -115.3978 97° East 496 571 37,000  Level Salt Lake Center
11:02AM 38.3364 -115.2394 97° East 494 568 37,000  Level Salt Lake Center
11:03AM 38.3200 -115.0642 97° East 499 574 37,000  Level Salt Lake Center
11:04AM 38.3025 -114.8906 97° East 496 571 37,000  Level Salt Lake Center
11:05AM 38.2803 -114.6831 98° East 494 568 37,000  Level Salt Lake Center
11:06AM 38.2622 -114.5089 97° East 497 572 37,000  Level Salt Lake Center
11:07AM 38.2408 -114.3353 99° East 497 572 37,000  Level Salt Lake Center
11:08AM 38.2119 -114.1647 102° East 495 570 37,000  Level Salt Lake Center
11:09AM 38.1842 -113.9931 102° East 496 571 37,000  Level Salt Lake Center
11:10AM 38.1550 -113.8225 102° East 495 570 37,000  Level Salt Lake Center
11:11AM 38.1256 -113.6539 102° East 490 564 37,000  Level Salt Lake Center
11:12AM 38.0900 -113.4494 102° East 493 567 37,000  Level Salt Lake Center
11:13AM 38.0608 -113.2814 102° East 489 563 37,000  Level Salt Lake Center
11:14AM 38.0294 -113.1108 103° East 493 567 37,000  Level Salt Lake Center
11:15AM 38.0008 -112.9403 102° East 492 566 37,000  Level Salt Lake Center
11:16AM 37.9697 -112.7694 103° East 494 568 37,000  Level Salt Lake Center
11:17AM 37.9386 -112.5997 103° East 491 565 37,000  Level Salt Lake Center
11:18AM 37.9083 -112.4311 103° East 488 562 37,000  Level Salt Lake Center
11:19AM 37.8769 -112.2619 103° East 492 566 37,000  Level Salt Lake Center
11:20AM 37.8383 -112.0594 104° East 493 567 37,000  Level Salt Lake Center
11:21AM 37.8069 -111.8903 103° East 493 567 37,000  Level Salt Lake Center
11:22AM 37.7742 -111.7181 103° East 501 577 37,000  Level Salt Lake Center
11:23AM 37.7422 -111.5483 103° East 500 575 37,000  Level Salt Lake Center
11:24AM 37.7097 -111.3775 103° East 500 575 37,000  Level Salt Lake Center
11:25AM 37.6950 -111.3078 105° East 502 578 37,000  Level Denver Center
11:25AM 37.6756 -111.2064 104° East 502 578 37,000  Level Salt Lake Center
11:26AM 37.6547 -111.1022 104° East 505 581 37,000  Level Denver Center
11:27AM 37.6211 -110.9322 104° East 503 579 37,000  Level Denver Center
11:28AM 37.5872 -110.7600 104° East 505 581 37,000  Level Denver Center
11:29AM 37.5528 -110.5892 104° East 506 582 37,000  Level Denver Center
11:30AM 37.5169 -110.4117 104° East 508 585 37,000  Level Denver Center
11:31AM 37.4828 -110.2453 104° East 507 583 37,000  Level Denver Center
11:33AM 37.4267 -109.9719 104° East 507 583 37,000  Level Salt Lake Center
11:33AM 37.4039 -109.8625 105° East 509 586 37,000  Level Denver Center
11:34AM 37.3697 -109.6978 105° East 508 585 37,000  Level Denver Center
11:35AM 37.3283 -109.5042 105° East 512 589 37,000  Level Denver Center
11:36AM 37.2944 -109.3375 104° East 513 590 37,000  Level Denver Center
11:37AM 37.2522 -109.1444 105° East 512 589 37,000  Level Denver Center
11:38AM 37.2158 -108.9786 105° East 513 590 37,000  Level Denver Center
11:39AM 37.1800 -108.8119 105° East 516 594 37,000  Level Denver Center
11:40AM 37.1381 -108.6194 105° East 513 590 37,000  Level Denver Center
11:41AM 37.1008 -108.4517 105° East 517 595 37,000  Level Denver Center
11:42AM 37.0586 -108.2592 105° East 514 592 37,000  Level Denver Center
11:43AM 37.0206 -108.0928 106° East 518 596 37,000  Level Denver Center
11:44AM 36.9839 -107.9011 103° East 509 586 37,000  Level Denver Center
11:45AM 36.9600 -107.7347 100° East 510 587 37,000  Level Denver Center
11:46AM 36.9303 -107.5372 101° East 516 594 37,000  Level Denver Center
11:47AM 36.9042 -107.3667 101° East 519 597 37,000  Level Denver Center
11:49AM 36.8772 -107.1967 101° East 522 601 37,000  Level Denver Center
11:50AM 36.8467 -106.9986 101° East 521 600 37,000  Level Denver Center
11:51AM 36.8194 -106.8278 101° East 521 600 37,000  Level Denver Center
11:52AM 36.7872 -106.6267 101° East 528 608 37,000  Level Denver Center
11:53AM 36.7597 -106.4556 101° East 526 605 37,000  Level Denver Center
11:54AM 36.7294 -106.2711 102° East 528 608 37,000  Level Denver Center
11:55AM 36.7003 -106.0892 101° East 534 615 37,000  Level Denver Center
11:56AM 36.6703 -105.9097 102° East 531 611 37,000  Level Denver Center
11:57AM 36.6400 -105.7022 100° East 532 612 37,000  Level Denver Center
11:58AM 36.6283 -105.5281 95° East 531 611 37,000  Level Denver Center
11:58AM 36.6156 -105.3828 96° East 526 605 37,000  Level Albuquerque Center
12:00PM 36.5981 -105.2122 97° East 521 600 37,000  Level Albuquerque Center
12:01PM 36.5808 -105.0383 97° East 524 603 37,000  Level Albuquerque Center
12:02PM 36.5594 -104.8250 97° East 527 606 37,000  Level Albuquerque Center
12:03PM 36.5419 -104.6411 97° East 529 609 37,000  Level Albuquerque Center
12:04PM 36.5253 -104.4592 96° East 526 605 37,000  Level Albuquerque Center
12:05PM 36.5069 -104.2753 97° East 528 608 37,000  Level Albuquerque Center
12:06PM 36.4892 -104.0953 97° East 524 603 37,000  Level Albuquerque Center
12:07PM 36.4708 -103.9156 97° East 520 598 37,000  Level Albuquerque Center
12:08PM 36.4533 -103.7333 97° East 523 602 37,000  Level Albuquerque Center
12:09PM 36.4336 -103.5525 98° East 524 603 37,000  Level Albuquerque Center
12:10PM 36.4114 -103.3403 97° East 525 604 37,000  Level Albuquerque Center
12:11PM 36.3919 -103.1603 98° East 522 601 37,000  Level Albuquerque Center
12:12PM 36.3725 -102.9803 98° East 521 600 37,000  Level Albuquerque Center
12:13PM 36.3531 -102.7978 97° East 522 601 37,000  Level Albuquerque Center
12:14PM 36.3325 -102.6183 98° East 524 603 37,000  Level Albuquerque Center
12:15PM 36.3117 -102.4378 98° East 527 606 37,000  Level Albuquerque Center
12:16PM 36.2908 -102.2569 98° East 529 609 37,000  Level Albuquerque Center
12:17PM 36.2706 -102.0758 98° East 530 610 37,000  Level Albuquerque Center
12:18PM 36.2444 -101.8603 98° East 528 608 37,000  Level Albuquerque Center
12:19PM 36.2236 -101.6800 98° East 528 608 37,000  Level Albuquerque Center
12:20PM 36.2008 -101.4969 99° East 532 612 37,000  Level Albuquerque Center
12:21PM 36.1794 -101.3142 98° East 534 615 37,000  Level Albuquerque Center
12:22PM 36.1536 -101.1150 99° East 539 620 37,000  Level Albuquerque Center
12:23PM 36.1297 -100.9322 99° East 537 618 37,000  Level Albuquerque Center
12:24PM 36.1078 -100.7483 98° East 539 620 37,000  Level Albuquerque Center
12:25PM 36.0828 -100.5642 99° East 541 623 37,000  Level Albuquerque Center
12:26PM 36.0594 -100.3806 99° East 542 624 37,000  Level Albuquerque Center
12:27PM 36.0342 -100.1964 100° East 542 624 37,000  Level Albuquerque Center
12:28PM 36.0242 -100.1236 100° East 541 623 37,000  Level Kansas City Center
12:29PM 36.0006 -99.9389 99° East 542 624 37,000  Level Kansas City Center
12:30PM 35.9694 -99.7181 100° East 543 625 37,000  Level Kansas City Center
12:31PM 35.9453 -99.5344 99° East 543 625 37,000  Level Kansas City Center
12:32PM 35.9192 -99.3467 100° East 544 626 37,000  Level Kansas City Center
12:38PM 35.7670 -98.3060 100° East 548 631 37,000  Level FlightAware
12:38PM 35.7480 -98.1850 101° East 548 631 37,000  Level FlightAware
12:39PM 35.7310 -98.0680 100° East 548 631 37,000  Level FlightAware
12:40PM 35.7090 -97.9240 101° East 549 632 37,000  Level FlightAware
12:40PM 35.6920 -97.8090 100° East 549 632 37,000  Level FlightAware
12:41PM 35.6690 -97.6650 101° East 548 631 37,000  Level FlightAware
12:42PM 35.6500 -97.5490 101° East 547 629 37,000  Level FlightAware
12:43PM 35.6230 -97.3670 100° East 547 629 37,000  Level FlightAware
12:43PM 35.6000 -97.2310 102° East 549 632 37,000  Level FlightAware
12:44PM 35.5750 -97.0760 101° East 549 632 37,000  Level FlightAware
12:45PM 35.5590 -96.9720 101° East 549 632 37,000  Level FlightAware
12:46PM 35.5420 -96.8680 101° East 549 632 37,000  Level FlightAware
12:46PM 35.5220 -96.7370 101° East 549 632 37,000  Level FlightAware
12:47PM 35.5050 -96.6330 101° East 549 632 37,000  Level FlightAware
12:48PM 35.4710 -96.4380 102° East 547 629 37,000  Level FlightAware
12:48PM 35.4510 -96.3190 102° East 550 633 37,000  Level FlightAware
12:49PM 35.4240 -96.1630 102° East 553 636 37,000  Level FlightAware
12:50PM 35.4010 -96.0290 102° East 555 639 37,000  Level FlightAware
12:51PM 35.3820 -95.9170 102° East 556 640 37,000  Level FlightAware
12:51PM 35.3620 -95.7940 101° East 557 641 37,000  Level FlightAware
12:52PM 35.3320 -95.6200 102° East 558 642 37,000  Level FlightAware
12:53PM 35.3150 -95.5140 101° East 558 642 37,000  Level FlightAware
12:54PM 35.2980 -95.4090 101° East 558 642 37,000  Level FlightAware
12:54PM 35.3750 -95.8730 282° West 559 643 37,000  Level FlightAware
12:55PM 35.3530 -95.7470 102° East 559 643 37,000  Level FlightAware
12:56PM 35.2140 -94.9610 102° East 563 648 37,000  Level FlightAware
12:56PM 35.1900 -94.8280 102° East 563 648 37,000  Level FlightAware
12:57PM 35.1650 -94.6920 103° East 564 649 37,000  Level FlightAware
12:58PM 35.1420 -94.5670 103° East 563 648 37,000  Level FlightAware
12:59PM 35.1200 -94.4450 102° East 561 646 37,000  Level FlightAware
12:59PM 35.0950 -94.3110 103° East 562 647 37,000 -660 Level FlightAware
01:00PM 35.0700 -94.1750 103° East 569 655 36,100 -1,200 Descending FlightAware
01:01PM 35.0470 -94.0560 103° East 565 650 35,400 -780 Descending FlightAware
01:01PM 35.0240 -93.9270 102° East 564 649 35,100 -300 Descending FlightAware
01:02PM 35.0220 -93.9140 101° East 564 649 35,000 -120 Descending FlightAware
01:03PM 35.0030 -93.8090 102° East 564 649 35,000  Level FlightAware
01:03PM 34.9850 -93.7030 102° East 564 649 35,000  Level FlightAware
01:04PM 34.9620 -93.5700 102° East 564 649 35,000  Level FlightAware
01:05PM 34.9440 -93.4640 102° East 564 649 35,000  Level FlightAware
01:06PM 34.9250 -93.3580 102° East 564 649 35,000  Level FlightAware
01:06PM 34.9070 -93.2530 102° East 564 649 35,000  Level FlightAware
01:07PM 34.8880 -93.1470 102° East 564 649 35,000  Level FlightAware
01:08PM 34.8700 -93.0410 102° East 564 649 35,000  Level FlightAware
01:08PM 34.8470 -92.9090 102° East 564 649 35,000  Level FlightAware
01:09PM 34.8280 -92.8030 102° East 564 649 35,000  Level FlightAware
01:10PM 34.8100 -92.6970 102° East 564 649 35,000  Level FlightAware
01:10PM 34.7910 -92.5920 102° East 564 649 35,000  Level FlightAware
01:11PM 34.7680 -92.4600 102° East 564 649 35,000 -3,600 Level FlightAware
01:12PM 34.6300 -91.9547 102° East 487 560 28,200 -3,780 Descending Memphis Center
01:13PM 34.5967 -91.7878 104° East 487 560 27,200 -900 Descending Memphis Center
01:14PM 34.5669 -91.6258 103° East 494 568 26,500 -1,500 Descending Memphis Center
01:16PM 34.5617 -91.2928 91° East 484 557 22,900 -1,800 Descending Memphis Center
01:17PM 34.5772 -91.1339 83° East 484 557 21,100 -1,800 Descending Memphis Center
01:18PM 34.5886 -90.9778 85° East 472 543 19,300 -1,800 Descending Memphis Center
01:19PM 34.5997 -90.8289 85° East 451 519 17,500 -1,500 Descending Memphis Center
01:21PM 34.6333 -90.5667 81° East 383 441 15,000 -1,080 Descending KMEM
01:22PM 34.7000 -90.4833 46° Northeast 335 386 14,500 -720 Descending KMEM
01:23PM 34.7500 -90.3833 59° Northeast 327 376 13,600 -1,200 Descending KMEM
01:24PM 34.8167 -90.3000 46° Northeast 332 382 12,200 -1,320 Descending KMEM
01:25PM 34.8667 -90.2167 54° Northeast 322 371 11,000 -1,200 Descending KMEM
01:26PM 34.9167 -90.1500 48° Northeast 267 307 9,900 -1,080 Descending KMEM
01:27PM 34.9667 -90.1167 29° Northeast 211 243 9,000 -1,200 Descending KMEM
01:28PM 35.0333 -90.1000 12° North 221 254 7,700 -1,260 Descending KMEM
01:29PM 35.1000 -90.1000 360° North 227 261 6,400 -1,140 Descending KMEM
01:30PM 35.1500 -90.1000 360° North 220 253 5,400 -1,080 Descending KMEM
01:32PM 35.2364 -90.0419 29° Northeast 180 207 3,100 -900 Descending Memphis Center
01:33PM 35.2092 -89.9886 122° Southeast 171 197 2,700 -600 Descending Memphis Center
01:34PM 35.1500 -89.9667 163° South 168 193 2,000 -660 Descending KMEM
01:35PM 35.1167 -89.9667 180° South 160 184 1,500 -660 Descending KMEM
01:36PM 35.0667 -89.9667 180° South 142 163 700 -840 Descending KMEM
01:38PM 35.0424 -89.9767 151° Southeast  Level Estimated
01:45PM 35.0424 -89.9767 151° Southeast  Level Estimated
01:46PM 35.0424 -89.9767 151° Southeast  Level Estimated
01:47PM 35.0424 -89.9767 151° Southeast  Level Estimated
01:48PM 35.0424 -89.9767 151° Southeast  Level Estimated
01:49PM 35.0424 -89.9767 151° Southeast  Level Estimated
01:50PM 35.0424 -89.9767 151° Southeast  Level Estimated